sensor_id;sensor_type;location;lat;lon;timestamp;pressure;altitude;pressure_sealevel;temperature;humidity
56876;BME280;42622;49.972;8.452;2023-06-22T00:02:18;100685.22;;;21.31;100.00
56876;BME280;42622;49.972;8.452;2023-06-22T00:04:44;100697.84;;;21.30;100.00
56876;BME280;42622;49.972;8.452;2023-06-22T00:07:10;100700.84;;;21.27;100.00
56876;BME280;42622;49.972;8.452;2023-06-22T00:09:36;100704.72;;;21.24;100.00
56876;BME280;42622;49.972;8.452;2023-06-22T00:12:02;100720.34;;;21.21;100.00
56876;BME280;42622;49.972;8.452;2023-06-22T00:14:28;100710.59;;;21.20;100.00
56876;BME280;42622;49.972;8.452;2023-06-22T00:16:54;100711.28;;;21.22;100.00
56876;BME280;42622;49.972;8.452;2023-06-22T00:19:23;100724.72;;;21.22;100.00
56876;BME280;42622;49.972;8.452;2023-06-22T00:21:50;100734.31;;;21.24;100.00
56876;BME280;42622;49.972;8.452;2023-06-22T00:24:22;100754.81;;;21.25;100.00
56876;BME280;42622;49.972;8.452;2023-06-22T00:26:50;100750.94;;;21.28;100.00
56876;BME280;42622;49.972;8.452;2023-06-22T00:29:16;100763.06;;;21.32;100.00
56876;BME280;42622;49.972;8.452;2023-06-22T00:31:42;100769.13;;;21.34;100.00
56876;BME280;42622;49.972;8.452;2023-06-22T00:34:08;100780.44;;;21.38;100.00
56876;BME280;42622;49.972;8.452;2023-06-22T00:36:37;100783.13;;;21.38;100.00
56876;BME280;42622;49.972;8.452;2023-06-22T00:39:03;100791.00;;;21.39;100.00
56876;BME280;42622;49.972;8.452;2023-06-22T00:41:28;100799.06;;;21.39;100.00
56876;BME280;42622;49.972;8.452;2023-06-22T00:43:55;100795.38;;;21.40;100.00
56876;BME280;42622;49.972;8.452;2023-06-22T00:46:22;100776.53;;;21.40;100.00
56876;BME280;42622;49.972;8.452;2023-06-22T00:48:52;100762.25;;;21.40;100.00
56876;BME280;42622;49.972;8.452;2023-06-22T00:51:18;100771.84;;;21.42;100.00
56876;BME280;42622;49.972;8.452;2023-06-22T00:53:50;100798.75;;;21.42;100.00
56876;BME280;42622;49.972;8.452;2023-06-22T00:56:18;100815.31;;;21.30;100.00
56876;BME280;42622;49.972;8.452;2023-06-22T00:58:46;100841.66;;;21.10;100.00
56876;BME280;42622;49.972;8.452;2023-06-22T01:01:13;100871.94;;;20.86;100.00
56876;BME280;42622;49.972;8.452;2023-06-22T01:03:40;100884.22;;;20.62;100.00
56876;BME280;42622;49.972;8.452;2023-06-22T01:06:16;100916.09;;;20.39;100.00
56876;BME280;42622;49.972;8.452;2023-06-22T01:09:19;100940.13;;;20.23;100.00
56876;BME280;42622;49.972;8.452;2023-06-22T01:12:01;100943.03;;;20.12;100.00
56876;BME280;42622;49.972;8.452;2023-06-22T01:14:57;100910.06;;;20.01;100.00
56876;BME280;42622;49.972;8.452;2023-06-22T01:17:29;100794.63;;;19.93;100.00
56876;BME280;42622;49.972;8.452;2023-06-22T01:20:00;100686.53;;;19.83;100.00
56876;BME280;42622;49.972;8.452;2023-06-22T01:22:33;100648.88;;;19.67;100.00
56876;BME280;42622;49.972;8.452;2023-06-22T01:25:49;100681.06;;;19.49;100.00
56876;BME280;42622;49.972;8.452;2023-06-22T01:31:16;100659.81;;;19.29;100.00
56876;BME280;42622;49.972;8.452;2023-06-22T01:33:57;100649.53;;;19.25;100.00
56876;BME280;42622;49.972;8.452;2023-06-22T01:36:27;100662.56;;;19.20;100.00
56876;BME280;42622;49.972;8.452;2023-06-22T01:38:57;100690.38;;;19.19;100.00
56876;BME280;42622;49.972;8.452;2023-06-22T01:41:30;100727.19;;;19.17;100.00
56876;BME280;42622;49.972;8.452;2023-06-22T01:43:59;100739.03;;;19.14;100.00
56876;BME280;42622;49.972;8.452;2023-06-22T01:46:25;100742.72;;;19.13;100.00
56876;BME280;42622;49.972;8.452;2023-06-22T01:48:52;100758.09;;;19.11;100.00
56876;BME280;42622;49.972;8.452;2023-06-22T01:51:19;100753.59;;;19.11;100.00
56876;BME280;42622;49.972;8.452;2023-06-22T01:53:45;100741.88;;;19.13;100.00
56876;BME280;42622;49.972;8.452;2023-06-22T01:56:17;100736.53;;;19.13;100.00
56876;BME280;42622;49.972;8.452;2023-06-22T01:59:04;100723.44;;;19.09;100.00
56876;BME280;42622;49.972;8.452;2023-06-22T02:01:54;100728.09;;;19.07;100.00
56876;BME280;42622;49.972;8.452;2023-06-22T02:04:36;100725.28;;;19.09;100.00
56876;BME280;42622;49.972;8.452;2023-06-22T02:07:14;100719.06;;;19.08;100.00
56876;BME280;42622;49.972;8.452;2023-06-22T02:09:45;100708.34;;;19.08;100.00
56876;BME280;42622;49.972;8.452;2023-06-22T02:12:22;100710.03;;;19.09;100.00
56876;BME280;42622;49.972;8.452;2023-06-22T02:14:50;100717.06;;;19.10;100.00
56876;BME280;42622;49.972;8.452;2023-06-22T02:17:18;100711.41;;;19.14;100.00
56876;BME280;42622;49.972;8.452;2023-06-22T02:19:44;100712.41;;;19.13;100.00
56876;BME280;42622;49.972;8.452;2023-06-22T02:22:10;100716.78;;;19.14;100.00
56876;BME280;42622;49.972;8.452;2023-06-22T02:24:35;100714.09;;;19.14;100.00
56876;BME280;42622;49.972;8.452;2023-06-22T02:27:02;100715.09;;;19.13;100.00
56876;BME280;42622;49.972;8.452;2023-06-22T02:29:28;100721.13;;;19.15;100.00
56876;BME280;42622;49.972;8.452;2023-06-22T02:31:54;100730.88;;;19.16;100.00
56876;BME280;42622;49.972;8.452;2023-06-22T02:34:21;100735.38;;;19.15;100.00
56876;BME280;42622;49.972;8.452;2023-06-22T02:36:49;100733.56;;;19.16;100.00
56876;BME280;42622;49.972;8.452;2023-06-22T02:39:24;100735.38;;;19.15;100.00
56876;BME280;42622;49.972;8.452;2023-06-22T02:41:51;100731.00;;;19.14;100.00
56876;BME280;42622;49.972;8.452;2023-06-22T02:44:18;100732.00;;;19.13;100.00
56876;BME280;42622;49.972;8.452;2023-06-22T02:46:45;100731.16;;;19.13;100.00
56876;BME280;42622;49.972;8.452;2023-06-22T02:49:12;100720.44;;;19.13;100.00
56876;BME280;42622;49.972;8.452;2023-06-22T02:51:44;100715.09;;;19.13;100.00
56876;BME280;42622;49.972;8.452;2023-06-22T02:54:11;100706.34;;;19.10;100.00
56876;BME280;42622;49.972;8.452;2023-06-22T02:56:37;100698.63;;;19.07;100.00
56876;BME280;42622;49.972;8.452;2023-06-22T02:59:03;100683.16;;;19.01;100.00
56876;BME280;42622;49.972;8.452;2023-06-22T03:01:30;100674.59;;;18.98;100.00
56876;BME280;42622;49.972;8.452;2023-06-22T03:03:58;100675.72;;;18.95;100.00
56876;BME280;42622;49.972;8.452;2023-06-22T03:06:23;100680.25;;;18.95;100.00
56876;BME280;42622;49.972;8.452;2023-06-22T03:09:02;100681.22;;;18.94;100.00
56876;BME280;42622;49.972;8.452;2023-06-22T03:11:34;100684.91;;;18.93;100.00
56876;BME280;42622;49.972;8.452;2023-06-22T03:14:01;100681.16;;;18.85;100.00
56876;BME280;42622;49.972;8.452;2023-06-22T03:16:26;100699.53;;;18.80;100.00
56876;BME280;42622;49.972;8.452;2023-06-22T03:18:53;100688.28;;;18.77;100.00
56876;BME280;42622;49.972;8.452;2023-06-22T03:21:22;100706.31;;;18.75;100.00
56876;BME280;42622;49.972;8.452;2023-06-22T03:23:48;100703.22;;;18.70;100.00
56876;BME280;42622;49.972;8.452;2023-06-22T03:26:17;100697.00;;;18.69;100.00
56876;BME280;42622;49.972;8.452;2023-06-22T03:28:44;100692.81;;;18.67;100.00
56876;BME280;42622;49.972;8.452;2023-06-22T03:31:09;100691.09;;;18.66;100.00
56876;BME280;42622;49.972;8.452;2023-06-22T03:33:35;100688.59;;;18.64;100.00
56876;BME280;42622;49.972;8.452;2023-06-22T03:36:01;100686.06;;;18.62;100.00
56876;BME280;42622;49.972;8.452;2023-06-22T03:38:27;100681.69;;;18.61;100.00
56876;BME280;42622;49.972;8.452;2023-06-22T03:40:52;100662.94;;;18.61;100.00
56876;BME280;42622;49.972;8.452;2023-06-22T03:43:18;100675.66;;;18.59;100.00
56876;BME280;42622;49.972;8.452;2023-06-22T03:45:44;100679.31;;;18.58;100.00
56876;BME280;42622;49.972;8.452;2023-06-22T03:48:11;100684.66;;;18.58;100.00
56876;BME280;42622;49.972;8.452;2023-06-22T03:50:37;100681.13;;;18.58;100.00
56876;BME280;42622;49.972;8.452;2023-06-22T03:53:03;100678.34;;;18.59;100.00
56876;BME280;42622;49.972;8.452;2023-06-22T03:55:29;100683.53;;;18.61;100.00
56876;BME280;42622;49.972;8.452;2023-06-22T03:57:55;100684.91;;;18.65;100.00
56876;BME280;42622;49.972;8.452;2023-06-22T04:00:23;100680.38;;;18.66;100.00
56876;BME280;42622;49.972;8.452;2023-06-22T04:02:49;100696.16;;;18.69;100.00
56876;BME280;42622;49.972;8.452;2023-06-22T04:05:15;100695.19;;;18.70;100.00
56876;BME280;42622;49.972;8.452;2023-06-22T04:07:42;100702.34;;;18.69;100.00
56876;BME280;42622;49.972;8.452;2023-06-22T04:10:08;100699.53;;;18.71;100.00
56876;BME280;42622;49.972;8.452;2023-06-22T04:12:34;100698.44;;;18.73;100.00
56876;BME280;42622;49.972;8.452;2023-06-22T04:15:01;100693.63;;;18.77;100.00
56876;BME280;42622;49.972;8.452;2023-06-22T04:17:27;100688.94;;;18.79;100.00
56876;BME280;42622;49.972;8.452;2023-06-22T04:19:53;100695.53;;;18.84;100.00
56876;BME280;42622;49.972;8.452;2023-06-22T04:22:18;100705.97;;;18.88;100.00
56876;BME280;42622;49.972;8.452;2023-06-22T04:24:45;100703.97;;;18.90;100.00
56876;BME280;42622;49.972;8.452;2023-06-22T04:27:10;100706.50;;;18.91;100.00
56876;BME280;42622;49.972;8.452;2023-06-22T04:29:37;100718.06;;;18.92;100.00
56876;BME280;42622;49.972;8.452;2023-06-22T04:32:04;100720.56;;;18.93;100.00
56876;BME280;42622;49.972;8.452;2023-06-22T04:34:31;100712.41;;;18.95;100.00
56876;BME280;42622;49.972;8.452;2023-06-22T04:36:57;100703.19;;;18.97;100.00
56876;BME280;42622;49.972;8.452;2023-06-22T04:39:23;100704.91;;;18.98;100.00
56876;BME280;42622;49.972;8.452;2023-06-22T04:41:49;100702.06;;;19.00;100.00
56876;BME280;42622;49.972;8.452;2023-06-22T04:44:19;100691.88;;;19.03;100.00
56876;BME280;42622;49.972;8.452;2023-06-22T04:46:59;100699.63;;;19.06;100.00
56876;BME280;42622;49.972;8.452;2023-06-22T04:49:35;100699.31;;;19.09;100.00
56876;BME280;42622;49.972;8.452;2023-06-22T04:52:08;100704.38;;;19.13;100.00
56876;BME280;42622;49.972;8.452;2023-06-22T04:54:37;100699.69;;;19.15;100.00
56876;BME280;42622;49.972;8.452;2023-06-22T04:57:13;100697.53;;;19.18;100.00
56876;BME280;42622;49.972;8.452;2023-06-22T04:59:40;100697.41;;;19.20;100.00
56876;BME280;42622;49.972;8.452;2023-06-22T05:02:08;100696.41;;;19.21;100.00
56876;BME280;42622;49.972;8.452;2023-06-22T05:04:34;100704.59;;;19.19;100.00
56876;BME280;42622;49.972;8.452;2023-06-22T05:07:04;100697.72;;;19.17;100.00
56876;BME280;42622;49.972;8.452;2023-06-22T05:09:31;100695.34;;;19.14;100.00
56876;BME280;42622;49.972;8.452;2023-06-22T05:11:57;100705.03;;;19.15;100.00
56876;BME280;42622;49.972;8.452;2023-06-22T05:14:23;100689.97;;;19.14;100.00
56876;BME280;42622;49.972;8.452;2023-06-22T05:16:49;100693.66;;;19.13;100.00
56876;BME280;42622;49.972;8.452;2023-06-22T05:19:17;100678.09;;;19.16;100.00
56876;BME280;42622;49.972;8.452;2023-06-22T05:21:43;100691.03;;;19.21;100.00
56876;BME280;42622;49.972;8.452;2023-06-22T05:24:08;100685.06;;;19.27;100.00
56876;BME280;42622;49.972;8.452;2023-06-22T05:26:35;100673.41;;;19.36;100.00
56876;BME280;42622;49.972;8.452;2023-06-22T05:29:02;100669.63;;;19.47;100.00
56876;BME280;42622;49.972;8.452;2023-06-22T05:31:29;100674.06;;;19.56;100.00
56876;BME280;42622;49.972;8.452;2023-06-22T05:33:56;100668.78;;;19.64;100.00
56876;BME280;42622;49.972;8.452;2023-06-22T05:36:22;100678.41;;;19.75;100.00
56876;BME280;42622;49.972;8.452;2023-06-22T05:38:52;100674.81;;;19.84;100.00
56876;BME280;42622;49.972;8.452;2023-06-22T05:41:18;100673.69;;;19.95;100.00
56876;BME280;42622;49.972;8.452;2023-06-22T05:43:44;100674.94;;;20.09;100.00
56876;BME280;42622;49.972;8.452;2023-06-22T05:46:10;100681.03;;;20.19;100.00
56876;BME280;42622;49.972;8.452;2023-06-22T05:48:36;100676.72;;;20.26;100.00
56876;BME280;42622;49.972;8.452;2023-06-22T05:51:02;100675.41;;;20.38;100.00
56876;BME280;42622;49.972;8.452;2023-06-22T05:53:28;100667.41;;;20.46;100.00
56876;BME280;42622;49.972;8.452;2023-06-22T05:55:53;100682.25;;;20.59;100.00
56876;BME280;42622;49.972;8.452;2023-06-22T05:58:19;100679.25;;;20.70;100.00
56876;BME280;42622;49.972;8.452;2023-06-22T06:00:45;100673.41;;;20.83;100.00
56876;BME280;42622;49.972;8.452;2023-06-22T06:03:11;100672.94;;;20.95;100.00
56876;BME280;42622;49.972;8.452;2023-06-22T06:05:37;100669.59;;;21.10;100.00
56876;BME280;42622;49.972;8.452;2023-06-22T06:08:06;100663.56;;;21.24;100.00
56876;BME280;42622;49.972;8.452;2023-06-22T06:10:33;100648.47;;;21.39;100.00
56876;BME280;42622;49.972;8.452;2023-06-22T06:13:00;100653.84;;;21.56;100.00
56876;BME280;42622;49.972;8.452;2023-06-22T06:15:31;100656.66;;;21.70;100.00
56876;BME280;42622;49.972;8.452;2023-06-22T06:17:57;100653.91;;;21.87;100.00
56876;BME280;42622;49.972;8.452;2023-06-22T06:20:25;100657.41;;;22.04;100.00
56876;BME280;42622;49.972;8.452;2023-06-22T06:22:53;100648.66;;;22.18;100.00
56876;BME280;42622;49.972;8.452;2023-06-22T06:25:19;100648.94;;;22.31;100.00
56876;BME280;42622;49.972;8.452;2023-06-22T06:27:49;100654.41;;;22.46;100.00
56876;BME280;42622;49.972;8.452;2023-06-22T06:30:18;100658.22;;;22.60;100.00
56876;BME280;42622;49.972;8.452;2023-06-22T06:32:46;100654.47;;;22.69;100.00
56876;BME280;42622;49.972;8.452;2023-06-22T06:35:15;100659.13;;;22.83;100.00
56876;BME280;42622;49.972;8.452;2023-06-22T06:37:47;100659.25;;;22.90;100.00
56876;BME280;42622;49.972;8.452;2023-06-22T06:40:15;100655.97;;;23.03;100.00
56876;BME280;42622;49.972;8.452;2023-06-22T06:42:48;100653.16;;;23.19;100.00
56876;BME280;42622;49.972;8.452;2023-06-22T06:45:23;100638.03;;;23.33;100.00
56876;BME280;42622;49.972;8.452;2023-06-22T06:47:52;100635.94;;;23.43;100.00
56876;BME280;42622;49.972;8.452;2023-06-22T06:50:18;100629.06;;;23.55;100.00
56876;BME280;42622;49.972;8.452;2023-06-22T06:52:44;100633.66;;;23.70;100.00
56876;BME280;42622;49.972;8.452;2023-06-22T06:55:10;100636.72;;;23.81;100.00
56876;BME280;42622;49.972;8.452;2023-06-22T06:57:38;100631.53;;;23.95;100.00
56876;BME280;42622;49.972;8.452;2023-06-22T07:00:07;100628.75;;;24.03;100.00
56876;BME280;42622;49.972;8.452;2023-06-22T07:02:39;100627.06;;;24.02;100.00
56876;BME280;42622;49.972;8.452;2023-06-22T07:05:06;100629.13;;;24.00;100.00
56876;BME280;42622;49.972;8.452;2023-06-22T07:07:32;100624.94;;;23.97;100.00
56876;BME280;42622;49.972;8.452;2023-06-22T07:09:58;100628.34;;;24.06;100.00
56876;BME280;42622;49.972;8.452;2023-06-22T07:12:24;100615.78;;;24.13;100.00
56876;BME280;42622;49.972;8.452;2023-06-22T07:14:51;100611.22;;;24.28;100.00
56876;BME280;42622;49.972;8.452;2023-06-22T07:17:17;100610.88;;;24.38;100.00
56876;BME280;42622;49.972;8.452;2023-06-22T07:19:43;100623.03;;;24.42;100.00
56876;BME280;42622;49.972;8.452;2023-06-22T07:22:09;100628.91;;;24.46;100.00
56876;BME280;42622;49.972;8.452;2023-06-22T07:24:34;100627.00;;;24.61;100.00
56876;BME280;42622;49.972;8.452;2023-06-22T07:27:00;100627.16;;;24.74;100.00
56876;BME280;42622;49.972;8.452;2023-06-22T07:29:27;100619.81;;;24.90;100.00
56876;BME280;42622;49.972;8.452;2023-06-22T07:31:53;100617.78;;;25.13;100.00
56876;BME280;42622;49.972;8.452;2023-06-22T07:34:22;100595.84;;;25.30;100.00
56876;BME280;42622;49.972;8.452;2023-06-22T07:36:48;100599.31;;;25.45;100.00
56876;BME280;42622;49.972;8.452;2023-06-22T07:39:13;100602.06;;;25.58;100.00
56876;BME280;42622;49.972;8.452;2023-06-22T07:41:40;100612.22;;;25.78;100.00
56876;BME280;42622;49.972;8.452;2023-06-22T07:44:07;100601.50;;;25.91;100.00
56876;BME280;42622;49.972;8.452;2023-06-22T07:46:34;100603.28;;;26.12;100.00
56876;BME280;42622;49.972;8.452;2023-06-22T07:49:00;100604.38;;;26.31;100.00
56876;BME280;42622;49.972;8.452;2023-06-22T07:51:26;100599.41;;;26.41;100.00
56876;BME280;42622;49.972;8.452;2023-06-22T07:53:52;100599.50;;;26.54;100.00
56876;BME280;42622;49.972;8.452;2023-06-22T07:56:18;100597.22;;;26.58;100.00
56876;BME280;42622;49.972;8.452;2023-06-22T07:58:46;100596.59;;;26.69;100.00
56876;BME280;42622;49.972;8.452;2023-06-22T08:01:15;100602.69;;;26.91;100.00
56876;BME280;42622;49.972;8.452;2023-06-22T08:03:42;100604.38;;;27.05;100.00
56876;BME280;42622;49.972;8.452;2023-06-22T08:06:09;100604.38;;;27.05;100.00
56876;BME280;42622;49.972;8.452;2023-06-22T08:08:36;100603.97;;;27.08;100.00
56876;BME280;42622;49.972;8.452;2023-06-22T08:11:02;100585.81;;;27.15;100.00
56876;BME280;42622;49.972;8.452;2023-06-22T08:13:28;100592.50;;;27.26;100.00
56876;BME280;42622;49.972;8.452;2023-06-22T08:15:54;100580.81;;;27.32;100.00
56876;BME280;42622;49.972;8.452;2023-06-22T08:18:20;100579.75;;;27.47;100.00
56876;BME280;42622;49.972;8.452;2023-06-22T08:20:46;100567.22;;;27.46;100.00
56876;BME280;42622;49.972;8.452;2023-06-22T08:23:11;100569.50;;;27.55;100.00
56876;BME280;42622;49.972;8.452;2023-06-22T08:25:37;100571.16;;;27.76;100.00
56876;BME280;42622;49.972;8.452;2023-06-22T08:28:04;100566.72;;;27.95;100.00
56876;BME280;42622;49.972;8.452;2023-06-22T08:30:30;100557.50;;;27.96;100.00
56876;BME280;42622;49.972;8.452;2023-06-22T08:32:56;100570.88;;;27.98;100.00
56876;BME280;42622;49.972;8.452;2023-06-22T08:35:23;100567.31;;;27.97;100.00
56876;BME280;42622;49.972;8.452;2023-06-22T08:37:50;100562.09;;;28.02;100.00
56876;BME280;42622;49.972;8.452;2023-06-22T08:40:19;100548.25;;;28.10;100.00
56876;BME280;42622;49.972;8.452;2023-06-22T08:42:47;100547.13;;;28.25;100.00
56876;BME280;42622;49.972;8.452;2023-06-22T08:45:14;100552.09;;;28.34;100.00
56876;BME280;42622;49.972;8.452;2023-06-22T08:47:42;100540.81;;;28.31;100.00
56876;BME280;42622;49.972;8.452;2023-06-22T08:50:11;100535.19;;;28.26;100.00
56876;BME280;42622;49.972;8.452;2023-06-22T08:52:40;100539.41;;;28.22;100.00
56876;BME280;42622;49.972;8.452;2023-06-22T08:55:09;100543.19;;;28.21;100.00
56876;BME280;42622;49.972;8.452;2023-06-22T08:57:36;100537.41;;;27.97;100.00
56876;BME280;42622;49.972;8.452;2023-06-22T09:00:07;100542.88;;;27.91;100.00
56876;BME280;42622;49.972;8.452;2023-06-22T09:02:46;100543.31;;;27.87;100.00
56876;BME280;42622;49.972;8.452;2023-06-22T09:05:12;100539.59;;;27.82;100.00
56876;BME280;42622;49.972;8.452;2023-06-22T09:07:38;100530.75;;;27.93;100.00
56876;BME280;42622;49.972;8.452;2023-06-22T09:10:05;100535.63;;;28.23;100.00
56876;BME280;42622;49.972;8.452;2023-06-22T09:12:32;100530.72;;;28.45;100.00
56876;BME280;42622;49.972;8.452;2023-06-22T09:15:00;100531.13;;;28.80;100.00
56876;BME280;42622;49.972;8.452;2023-06-22T09:17:26;100512.47;;;29.09;100.00
56876;BME280;42622;49.972;8.452;2023-06-22T09:19:52;100516.38;;;29.38;100.00
56876;BME280;42622;49.972;8.452;2023-06-22T09:22:18;100519.50;;;29.60;100.00
56876;BME280;42622;49.972;8.452;2023-06-22T09:24:43;100516.78;;;29.78;100.00
56876;BME280;42622;49.972;8.452;2023-06-22T09:27:09;100508.91;;;29.70;100.00
56876;BME280;42622;49.972;8.452;2023-06-22T09:29:35;100498.53;;;29.60;100.00
56876;BME280;42622;49.972;8.452;2023-06-22T09:32:00;100501.09;;;29.55;100.00
56876;BME280;42622;49.972;8.452;2023-06-22T09:34:27;100488.63;;;29.47;100.00
56876;BME280;42622;49.972;8.452;2023-06-22T09:36:52;100495.59;;;29.62;100.00
56876;BME280;42622;49.972;8.452;2023-06-22T09:39:19;100490.91;;;29.69;100.00
56876;BME280;42622;49.972;8.452;2023-06-22T09:41:44;100486.41;;;29.56;100.00
56876;BME280;42622;49.972;8.452;2023-06-22T09:44:10;100488.88;;;29.58;100.00
56876;BME280;42622;49.972;8.452;2023-06-22T09:46:36;100489.38;;;29.54;100.00
56876;BME280;42622;49.972;8.452;2023-06-22T09:49:01;100493.56;;;29.75;100.00
56876;BME280;42622;49.972;8.452;2023-06-22T09:51:27;100488.19;;;29.69;99.05
56876;BME280;42622;49.972;8.452;2023-06-22T09:53:53;100490.59;;;29.59;96.78
56876;BME280;42622;49.972;8.452;2023-06-22T09:56:19;100489.31;;;29.61;100.00
56876;BME280;42622;49.972;8.452;2023-06-22T09:58:46;100495.66;;;29.73;98.94
56876;BME280;42622;49.972;8.452;2023-06-22T10:01:12;100488.91;;;29.94;100.00
56876;BME280;42622;49.972;8.452;2023-06-22T10:03:41;100471.91;;;30.11;100.00
56876;BME280;42622;49.972;8.452;2023-06-22T10:06:08;100461.91;;;30.35;99.12
56876;BME280;42622;49.972;8.452;2023-06-22T10:08:35;100451.75;;;30.54;99.42
56876;BME280;42622;49.972;8.452;2023-06-22T10:11:01;100448.22;;;30.53;95.54
56876;BME280;42622;49.972;8.452;2023-06-22T10:13:27;100451.34;;;30.27;91.52
56876;BME280;42622;49.972;8.452;2023-06-22T10:15:53;100433.44;;;30.19;93.11
56876;BME280;42622;49.972;8.452;2023-06-22T10:18:19;100437.16;;;30.36;92.89
56876;BME280;42622;49.972;8.452;2023-06-22T10:20:48;100435.25;;;30.48;92.51
56876;BME280;42622;49.972;8.452;2023-06-22T10:23:17;100424.59;;;30.59;90.93
56876;BME280;42622;49.972;8.452;2023-06-22T10:25:43;100425.31;;;30.66;90.83
56876;BME280;42622;49.972;8.452;2023-06-22T10:28:08;100423.47;;;30.78;88.62
56876;BME280;42622;49.972;8.452;2023-06-22T10:30:34;100412.75;;;30.88;88.33
56876;BME280;42622;49.972;8.452;2023-06-22T10:33:00;100416.53;;;31.11;88.10
56876;BME280;42622;49.972;8.452;2023-06-22T10:35:25;100413.44;;;31.19;86.35
56876;BME280;42622;49.972;8.452;2023-06-22T10:37:52;100403.56;;;31.30;84.50
56876;BME280;42622;49.972;8.452;2023-06-22T10:40:17;100384.69;;;31.28;84.97
56876;BME280;42622;49.972;8.452;2023-06-22T10:42:44;100383.59;;;31.41;86.95
56876;BME280;42622;49.972;8.452;2023-06-22T10:45:11;100375.03;;;31.49;86.97
56876;BME280;42622;49.972;8.452;2023-06-22T10:47:37;100375.84;;;31.50;86.58
56876;BME280;42622;49.972;8.452;2023-06-22T10:50:04;100364.97;;;31.26;84.32
56876;BME280;42622;49.972;8.452;2023-06-22T10:52:31;100358.66;;;30.85;84.03
56876;BME280;42622;49.972;8.452;2023-06-22T10:54:56;100344.31;;;30.78;84.75
56876;BME280;42622;49.972;8.452;2023-06-22T10:57:22;100341.78;;;31.00;85.36
56876;BME280;42622;49.972;8.452;2023-06-22T10:59:49;100348.94;;;31.30;86.44
56876;BME280;42622;49.972;8.452;2023-06-22T11:02:14;100344.66;;;31.34;84.45
56876;BME280;42622;49.972;8.452;2023-06-22T11:04:40;100349.75;;;31.30;86.59
56876;BME280;42622;49.972;8.452;2023-06-22T11:07:06;100348.38;;;31.16;86.61
56876;BME280;42622;49.972;8.452;2023-06-22T11:09:32;100346.19;;;30.89;85.93
56876;BME280;42622;49.972;8.452;2023-06-22T11:11:57;100342.63;;;30.77;86.14
56876;BME280;42622;49.972;8.452;2023-06-22T11:14:25;100340.03;;;30.82;86.33
56876;BME280;42622;49.972;8.452;2023-06-22T11:16:50;100332.38;;;31.08;86.33
56876;BME280;42622;49.972;8.452;2023-06-22T11:19:17;100336.09;;;31.30;85.95
56876;BME280;42622;49.972;8.452;2023-06-22T11:21:44;100329.50;;;31.55;83.24
56876;BME280;42622;49.972;8.452;2023-06-22T11:24:09;100326.19;;;31.70;83.87
56876;BME280;42622;49.972;8.452;2023-06-22T11:26:35;100317.63;;;31.78;81.06
56876;BME280;42622;49.972;8.452;2023-06-22T11:29:02;100325.97;;;31.71;81.20
56876;BME280;42622;49.972;8.452;2023-06-22T11:31:32;100328.03;;;31.64;79.94
56876;BME280;42622;49.972;8.452;2023-06-22T11:33:58;100325.41;;;31.40;81.46
56876;BME280;42622;49.972;8.452;2023-06-22T11:36:26;100321.75;;;31.23;82.11
56876;BME280;42622;49.972;8.452;2023-06-22T11:38:51;100316.16;;;30.89;80.93
56876;BME280;42622;49.972;8.452;2023-06-22T11:41:17;100319.34;;;30.63;81.53
56876;BME280;42622;49.972;8.452;2023-06-22T11:43:44;100318.41;;;30.69;83.05
56876;BME280;42622;49.972;8.452;2023-06-22T11:46:10;100330.84;;;30.88;83.76
56876;BME280;42622;49.972;8.452;2023-06-22T11:48:36;100314.63;;;31.22;84.95
56876;BME280;42622;49.972;8.452;2023-06-22T11:51:03;100306.66;;;31.61;83.38
56876;BME280;42622;49.972;8.452;2023-06-22T11:53:29;100290.13;;;32.01;84.09
56876;BME280;42622;49.972;8.452;2023-06-22T11:55:55;100294.69;;;32.29;79.17
56876;BME280;42622;49.972;8.452;2023-06-22T11:58:22;100278.69;;;32.21;78.25
56876;BME280;42622;49.972;8.452;2023-06-22T12:00:49;100280.00;;;32.35;79.95
56876;BME280;42622;49.972;8.452;2023-06-22T12:03:15;100270.97;;;32.52;80.46
